Time;durP1;ratioP1;P1;durP2;ratioP2;P2;SDS_P1;SDS_P2;PMS_P1;PMS_P2;Temp;Humidity;BMP_temperature;BMP_pressure;BME280_temperature;BME280_humidity;BME280_pressure;Samples;Min_cycle;Max_cycle;Signal;HPM_P1;HPM_P2
2022/12/09 00:01:44;;;;;;;47.38;22.13;;;-0.40;99.90;;;;;;4895367;28;20427;-45
2022/12/09 00:04:10;;;;;;;47.75;22.10;;;-0.50;99.90;;;;;;4896052;28;20043;-46
2022/12/09 00:06:36;;;;;;;41.60;20.95;;;-0.50;99.90;;;;;;4968285;28;20058;-45
2022/12/09 00:09:02;;;;;;;45.22;20.88;;;-0.50;99.90;;;;;;5038279;28;20111;-46
2022/12/09 00:11:28;;;;;;;40.25;19.17;;;-0.50;99.90;;;;;;5067012;28;20100;-46
2022/12/09 00:13:56;;;;;;;39.03;18.70;;;-0.50;99.90;;;;;;5078027;28;21446;-45
2022/12/09 00:16:23;;;;;;;41.53;19.05;;;-0.50;99.90;;;;;;5074014;28;20486;-45
2022/12/09 00:18:50;;;;;;;41.03;20.15;;;-0.50;99.90;;;;;;5076941;28;20028;-46
2022/12/09 00:21:28;;;;;;;40.63;19.55;;;-0.50;99.90;;;;;;5079347;28;20024;-45
2022/12/09 00:23:55;;;;;;;43.63;20.58;;;-0.60;99.90;;;;;;5085086;28;20012;-45
2022/12/09 00:26:22;;;;;;;40.38;19.88;;;-0.60;99.90;;;;;;5081173;28;20036;-47
2022/12/09 00:28:48;;;;;;;44.90;22.00;;;-0.60;99.90;;;;;;5086896;28;20024;-45
2022/12/09 00:31:20;;;;;;;47.83;21.75;;;-0.60;99.90;;;;;;5081454;28;20270;-45
2022/12/09 00:33:46;;;;;;;42.65;21.25;;;-0.60;99.90;;;;;;5087183;28;20469;-45
2022/12/09 00:36:14;;;;;;;52.80;21.95;;;-0.60;99.90;;;;;;5069484;28;20024;-45
2022/12/09 00:38:40;;;;;;;50.17;23.17;;;-0.60;99.90;;;;;;5086922;28;20028;-45
2022/12/09 00:41:06;;;;;;;46.03;21.73;;;-0.60;99.90;;;;;;5066211;28;20574;-45
2022/12/09 00:43:32;;;;;;;45.40;20.02;;;-0.60;99.90;;;;;;5070438;28;20028;-45
2022/12/09 00:45:58;;;;;;;50.80;24.50;;;-0.60;99.90;;;;;;5071539;28;20028;-45
2022/12/09 00:48:25;;;;;;;52.38;22.83;;;-0.70;99.90;;;;;;5071195;28;20020;-45
2022/12/09 00:50:51;;;;;;;56.03;22.38;;;-0.70;99.90;;;;;;5070342;28;20048;-45
2022/12/09 00:53:17;;;;;;;53.22;23.33;;;-0.70;99.90;;;;;;5071114;28;20035;-45
2022/12/09 00:55:44;;;;;;;49.95;22.83;;;-0.70;99.90;;;;;;5071321;28;20393;-45
2022/12/09 00:58:10;;;;;;;51.38;23.08;;;-0.70;99.90;;;;;;5071042;28;20047;-45
2022/12/09 01:00:36;;;;;;;52.00;24.55;;;-0.80;99.90;;;;;;5070438;28;20264;-45
2022/12/09 01:03:02;;;;;;;49.00;22.77;;;-0.80;99.90;;;;;;5071069;28;20125;-45
2022/12/09 01:05:28;;;;;;;54.05;22.88;;;-0.70;99.90;;;;;;5070945;28;20115;-45
2022/12/09 01:07:54;;;;;;;48.55;23.35;;;-0.70;99.90;;;;;;5071292;28;20069;-45
2022/12/09 01:10:20;;;;;;;52.95;23.98;;;-0.60;99.90;;;;;;5070745;28;20032;-46
2022/12/09 01:12:46;;;;;;;55.60;22.42;;;-0.60;99.90;;;;;;5070745;28;20041;-45
2022/12/09 01:15:11;;;;;;;51.47;22.65;;;-0.60;99.90;;;;;;5071119;28;20065;-46
2022/12/09 01:17:39;;;;;;;44.88;19.83;;;-0.60;99.90;;;;;;5068599;28;20021;-47
2022/12/09 01:20:07;;;;;;;55.58;23.80;;;-0.50;99.90;;;;;;5069966;28;20078;-45
2022/12/09 01:22:34;;;;;;;48.08;21.60;;;-0.50;99.90;;;;;;5070712;28;20485;-45
2022/12/09 01:24:59;;;;;;;52.10;23.92;;;-0.50;99.90;;;;;;5068666;28;20024;-45
2022/12/09 01:27:25;;;;;;;50.25;23.15;;;-0.60;99.90;;;;;;5070594;28;20024;-45
2022/12/09 01:29:50;;;;;;;48.67;23.30;;;-0.50;99.90;;;;;;5069948;28;20035;-45
2022/12/09 01:32:16;;;;;;;60.80;27.13;;;-0.50;99.90;;;;;;5070572;28;20493;-45
2022/12/09 01:34:41;;;;;;;59.15;26.17;;;-0.50;99.90;;;;;;5069235;28;20017;-45
2022/12/09 01:37:07;;;;;;;60.53;26.70;;;-0.50;99.90;;;;;;5070119;28;20569;-44
2022/12/09 01:39:33;;;;;;;58.72;26.20;;;-0.50;99.90;;;;;;5069871;28;20485;-45
2022/12/09 01:42:01;;;;;;;54.33;25.27;;;-0.40;99.90;;;;;;5070655;28;20089;-45
2022/12/09 01:44:29;;;;;;;53.17;24.98;;;-0.40;99.90;;;;;;5068720;28;20085;-45
2022/12/09 01:46:58;;;;;;;50.53;23.83;;;-0.40;99.90;;;;;;5070492;28;20039;-44
2022/12/09 01:49:32;;;;;;;49.63;24.38;;;-0.40;99.90;;;;;;5069847;28;20035;-45
2022/12/09 01:52:21;;;;;;;49.67;23.33;;;-0.40;99.90;;;;;;5070015;28;20106;-45
2022/12/09 01:54:49;;;;;;;45.40;22.40;;;-0.40;99.90;;;;;;5064321;28;20027;-45
2022/12/09 01:57:15;;;;;;;45.63;21.70;;;-0.50;99.90;;;;;;5060283;28;20182;-45
2022/12/09 01:59:41;;;;;;;45.25;23.95;;;-0.40;99.90;;;;;;5060502;28;20034;-45
2022/12/09 02:02:10;;;;;;;62.63;26.65;;;-0.50;99.90;;;;;;5061100;28;20032;-45
2022/12/09 02:04:39;;;;;;;46.80;22.88;;;-0.40;99.90;;;;;;5059200;28;20749;-45
2022/12/09 02:07:09;;;;;;;58.45;26.33;;;-0.40;99.90;;;;;;5059629;28;20111;-46
2022/12/09 02:09:35;;;;;;;66.53;30.20;;;-0.20;99.90;;;;;;5054578;28;20055;-46
2022/12/09 02:12:43;;;;;;;70.22;31.10;;;-0.20;99.90;;;;;;5051339;28;20032;-47
2022/12/09 02:15:16;;;;;;;57.15;26.35;;;0.00;99.90;;;;;;5016907;28;20039;-45
2022/12/09 02:17:57;;;;;;;62.25;26.73;;;0.00;99.90;;;;;;5046236;28;20056;-45
2022/12/09 02:20:52;;;;;;;77.82;32.17;;;0.10;99.90;;;;;;5044236;28;20078;-46
2022/12/09 02:23:22;;;;;;;71.10;30.65;;;0.30;99.90;;;;;;5046515;28;20043;-45
2022/12/09 02:25:55;;;;;;;63.23;27.47;;;0.30;99.90;;;;;;5057413;28;20032;-45
2022/12/09 02:28:40;;;;;;;58.97;26.95;;;0.30;99.90;;;;;;5057232;28;20267;-46
2022/12/09 02:31:38;;;;;;;57.53;26.38;;;0.30;99.90;;;;;;5055008;28;20028;-46
2022/12/09 02:34:19;;;;;;;63.13;27.35;;;0.30;99.90;;;;;;5057094;28;22738;-46
2022/12/09 02:36:51;;;;;;;62.85;27.63;;;0.30;99.90;;;;;;5058819;28;20060;-46
2022/12/09 02:39:21;;;;;;;62.90;28.77;;;0.30;99.90;;;;;;5062960;28;20024;-46
2022/12/09 02:41:50;;;;;;;58.38;26.77;;;0.30;99.90;;;;;;5062490;28;20035;-45
2022/12/09 02:44:19;;;;;;;60.58;27.40;;;0.30;99.90;;;;;;5062348;28;20074;-45
2022/12/09 02:46:45;;;;;;;58.05;26.08;;;0.30;99.90;;;;;;5067569;28;20073;-46
2022/12/09 02:49:13;;;;;;;49.95;24.13;;;0.20;99.90;;;;;;5067202;28;20038;-45
2022/12/09 02:51:41;;;;;;;62.63;25.58;;;0.10;99.90;;;;;;5069133;28;20062;-48
2022/12/09 02:54:16;;;;;;;58.65;26.75;;;0.10;99.90;;;;;;5069132;28;20024;-45
2022/12/09 02:57:10;;;;;;;65.40;30.48;;;0.10;99.90;;;;;;5066153;28;20263;-46
2022/12/09 02:59:36;;;;;;;59.42;26.88;;;0.10;99.90;;;;;;5068424;28;20071;-47
2022/12/09 03:02:25;;;;;;;62.58;26.75;;;0.00;99.90;;;;;;5068963;28;20060;-47
2022/12/09 03:05:35;;;;;;;60.30;25.95;;;-0.10;99.90;;;;;;5076591;28;20024;-46
2022/12/09 03:08:09;;;;;;;68.65;30.27;;;0.00;99.90;;;;;;5007455;28;20159;-46
2022/12/09 03:10:46;;;;;;;76.50;31.27;;;0.00;99.90;;;;;;5057591;28;20051;-46
2022/12/09 03:13:29;;;;;;;73.43;29.63;;;0.00;99.90;;;;;;5061609;28;20040;-45
2022/12/09 03:16:06;;;;;;;74.10;31.35;;;0.00;99.90;;;;;;5046117;28;20031;-49
2022/12/09 03:18:32;;;;;;;69.18;32.58;;;0.10;99.90;;;;;;5061070;28;20059;-45
2022/12/09 03:21:02;;;;;;;72.38;29.90;;;0.10;99.90;;;;;;5055116;28;20035;-47
2022/12/09 03:23:30;;;;;;;68.03;28.65;;;0.10;99.90;;;;;;5052301;28;20032;-48
2022/12/09 03:25:59;;;;;;;60.28;26.70;;;0.00;99.90;;;;;;5054682;28;20036;-47
2022/12/09 03:28:39;;;;;;;63.38;27.75;;;0.00;99.90;;;;;;5055064;28;20532;-46
2022/12/09 03:31:09;;;;;;;64.95;29.33;;;0.00;99.90;;;;;;5053471;28;20032;-45
2022/12/09 03:33:35;;;;;;;59.55;25.50;;;0.00;99.90;;;;;;5055744;28;20137;-46
2022/12/09 03:36:04;;;;;;;59.70;26.92;;;-0.10;99.90;;;;;;5058825;28;20114;-47
2022/12/09 03:38:35;;;;;;;59.60;25.80;;;-0.20;99.90;;;;;;5059735;28;20025;-45
2022/12/09 03:41:16;;;;;;;56.22;26.15;;;-0.30;99.90;;;;;;5059036;28;20032;-45
2022/12/09 03:43:47;;;;;;;60.53;26.48;;;-0.20;99.90;;;;;;5061737;28;20071;-45
2022/12/09 03:46:13;;;;;;;60.25;25.23;;;-0.10;99.90;;;;;;5060691;28;20032;-45
2022/12/09 03:48:39;;;;;;;56.83;25.20;;;-0.20;99.90;;;;;;5062173;28;20405;-45
2022/12/09 03:51:11;;;;;;;54.30;26.10;;;-0.10;99.90;;;;;;5067136;28;20089;-45
2022/12/09 03:53:40;;;;;;;59.80;26.02;;;-0.20;99.90;;;;;;5067590;28;20484;-48
2022/12/09 03:56:27;;;;;;;60.17;26.83;;;-0.10;99.90;;;;;;5067690;28;20067;-45
2022/12/09 03:58:56;;;;;;;59.53;25.75;;;-0.10;99.90;;;;;;5067578;28;20026;-48
2022/12/09 04:01:26;;;;;;;59.45;26.05;;;-0.10;99.90;;;;;;5067306;28;20497;-45
2022/12/09 04:03:54;;;;;;;58.15;25.15;;;-0.10;99.90;;;;;;5074408;28;20061;-45
2022/12/09 04:06:20;;;;;;;57.10;25.77;;;-0.10;99.90;;;;;;5063556;28;20375;-45
2022/12/09 04:08:45;;;;;;;57.55;26.13;;;-0.10;99.90;;;;;;5061332;28;20027;-46
2022/12/09 04:11:11;;;;;;;68.15;27.67;;;-0.10;99.90;;;;;;5062826;28;20020;-45
2022/12/09 04:13:36;;;;;;;64.97;29.38;;;-0.20;99.90;;;;;;5062369;28;20790;-47
2022/12/09 04:16:02;;;;;;;60.75;27.65;;;-0.20;99.90;;;;;;5063833;28;20032;-46
2022/12/09 04:18:28;;;;;;;59.88;27.05;;;-0.20;99.90;;;;;;5062860;28;20025;-46
2022/12/09 04:20:54;;;;;;;60.22;26.38;;;-0.30;99.90;;;;;;5062551;28;20115;-46
2022/12/09 04:23:20;;;;;;;63.00;26.95;;;-0.30;99.90;;;;;;5063061;28;20029;-45
2022/12/09 04:25:45;;;;;;;57.35;25.58;;;-0.40;99.90;;;;;;5062049;28;20028;-46
2022/12/09 04:28:11;;;;;;;60.80;28.23;;;-0.40;99.90;;;;;;5062095;28;20525;-45
2022/12/09 04:30:36;;;;;;;56.65;26.08;;;-0.40;99.90;;;;;;5062255;28;20077;-45
2022/12/09 04:33:02;;;;;;;59.92;26.45;;;-0.40;99.90;;;;;;5061590;28;20609;-46
2022/12/09 04:35:27;;;;;;;59.95;25.75;;;-0.40;99.90;;;;;;5064817;28;20073;-45
2022/12/09 04:37:53;;;;;;;53.95;24.52;;;-0.40;99.90;;;;;;5067802;28;20413;-45
2022/12/09 04:40:19;;;;;;;56.95;25.73;;;-0.40;99.90;;;;;;5067102;28;20389;-45
2022/12/09 04:42:46;;;;;;;60.08;27.70;;;-0.40;99.90;;;;;;5067480;28;20028;-46
2022/12/09 04:45:11;;;;;;;59.67;27.08;;;-0.40;99.90;;;;;;5067452;28;20396;-45
2022/12/09 04:47:37;;;;;;;55.78;26.88;;;-0.30;99.90;;;;;;5067450;28;20061;-46
2022/12/09 04:50:03;;;;;;;50.47;25.35;;;-0.30;99.90;;;;;;5066797;28;20055;-46
2022/12/09 04:52:29;;;;;;;56.55;24.45;;;-0.30;99.90;;;;;;5067099;28;20439;-46
2022/12/09 04:54:54;;;;;;;52.35;25.05;;;-0.30;99.90;;;;;;5066970;28;20029;-45
2022/12/09 04:57:20;;;;;;;50.05;22.80;;;-0.20;99.90;;;;;;5066783;28;20020;-46
2022/12/09 04:59:45;;;;;;;51.00;23.77;;;-0.20;99.90;;;;;;5069124;28;20029;-45
2022/12/09 05:02:11;;;;;;;51.17;24.60;;;-0.10;99.90;;;;;;5070688;28;20324;-45
2022/12/09 05:04:36;;;;;;;55.78;24.42;;;-0.10;99.90;;;;;;5070544;28;20032;-45
2022/12/09 05:07:02;;;;;;;51.22;23.70;;;-0.10;99.90;;;;;;5070503;28;20145;-46
2022/12/09 05:09:27;;;;;;;47.63;22.90;;;0.00;99.90;;;;;;5068899;28;20437;-45
2022/12/09 05:11:55;;;;;;;52.83;25.13;;;0.00;99.90;;;;;;5070132;28;20036;-46
2022/12/09 05:14:20;;;;;;;44.80;22.77;;;0.00;99.90;;;;;;5070372;28;20025;-46
2022/12/09 05:16:46;;;;;;;45.28;21.40;;;0.00;99.90;;;;;;5070911;28;20492;-45
2022/12/09 05:19:11;;;;;;;49.42;22.08;;;0.00;99.90;;;;;;5069648;28;20048;-46
2022/12/09 05:21:37;;;;;;;48.63;22.35;;;0.00;99.90;;;;;;5070488;28;20035;-45
2022/12/09 05:24:02;;;;;;;49.50;24.02;;;-0.10;99.90;;;;;;5069911;28;20334;-49
2022/12/09 05:26:28;;;;;;;47.60;22.33;;;-0.10;99.90;;;;;;5070400;28;20029;-46
2022/12/09 05:28:53;;;;;;;52.33;22.55;;;-0.10;99.90;;;;;;5070976;28;20031;-46
2022/12/09 05:31:21;;;;;;;50.58;22.70;;;-0.10;99.90;;;;;;5071300;28;20062;-47
2022/12/09 05:33:48;;;;;;;50.67;22.38;;;0.00;99.90;;;;;;5072410;28;20016;-45
2022/12/09 05:36:18;;;;;;;50.42;23.88;;;0.00;99.90;;;;;;5071019;28;20025;-46
2022/12/09 05:38:44;;;;;;;50.53;22.75;;;0.00;99.90;;;;;;5072426;28;20451;-45
2022/12/09 05:41:12;;;;;;;49.97;22.85;;;0.10;99.90;;;;;;5066044;28;20040;-45
2022/12/09 05:43:38;;;;;;;60.55;24.98;;;0.10;99.90;;;;;;5065273;28;20044;-45
2022/12/09 05:46:05;;;;;;;50.85;23.70;;;0.00;99.90;;;;;;5078342;28;20050;-48
2022/12/09 05:48:31;;;;;;;58.92;25.85;;;0.10;99.90;;;;;;5066200;28;20039;-45
2022/12/09 05:51:03;;;;;;;53.45;23.70;;;0.10;99.90;;;;;;5065588;28;20028;-47
2022/12/09 05:53:29;;;;;;;46.00;21.98;;;0.10;99.90;;;;;;5066313;28;20024;-47
2022/12/09 05:55:55;;;;;;;58.72;25.50;;;0.10;99.90;;;;;;5065241;28;20055;-46
2022/12/09 05:58:21;;;;;;;49.92;23.23;;;0.20;99.90;;;;;;5065190;28;20027;-46
2022/12/09 06:00:48;;;;;;;51.83;23.55;;;0.20;99.90;;;;;;5064875;28;20026;-45
2022/12/09 06:03:14;;;;;;;49.88;23.90;;;0.20;99.90;;;;;;5065320;28;20113;-46
2022/12/09 06:05:41;;;;;;;45.13;21.67;;;0.20;99.90;;;;;;5063092;28;20390;-47
2022/12/09 06:08:07;;;;;;;43.90;21.42;;;0.30;99.90;;;;;;5056876;28;20028;-48
2022/12/09 06:10:34;;;;;;;47.78;23.15;;;0.20;99.90;;;;;;5063832;28;20172;-45
2022/12/09 06:13:00;;;;;;;56.55;24.13;;;0.20;99.90;;;;;;5064701;28;20052;-45
2022/12/09 06:15:25;;;;;;;49.58;23.35;;;0.20;99.90;;;;;;5066515;28;20123;-45
2022/12/09 06:17:51;;;;;;;46.53;21.48;;;0.30;99.90;;;;;;5063469;28;20476;-46
2022/12/09 06:20:17;;;;;;;49.17;22.23;;;0.30;99.90;;;;;;5064436;28;20111;-45
2022/12/09 06:22:43;;;;;;;54.20;23.70;;;0.40;99.90;;;;;;5065532;28;20107;-46
2022/12/09 06:25:09;;;;;;;49.67;24.10;;;0.40;99.90;;;;;;5062530;28;20128;-49
2022/12/09 06:27:35;;;;;;;51.10;24.75;;;0.40;99.90;;;;;;5065310;28;20054;-45
2022/12/09 06:30:01;;;;;;;50.55;22.13;;;0.40;99.90;;;;;;5064142;28;20107;-46
2022/12/09 06:32:28;;;;;;;48.30;24.10;;;0.40;99.90;;;;;;5065528;28;20616;-46
2022/12/09 06:34:54;;;;;;;45.05;21.25;;;0.40;99.90;;;;;;5065502;28;20024;-45
2022/12/09 06:37:19;;;;;;;46.65;22.00;;;0.50;99.90;;;;;;5069135;28;20024;-44
2022/12/09 06:39:46;;;;;;;41.47;20.73;;;0.50;99.90;;;;;;5069333;28;20192;-44
2022/12/09 06:42:11;;;;;;;44.60;20.08;;;0.50;99.90;;;;;;5069695;28;20035;-44
2022/12/09 06:44:38;;;;;;;45.25;22.38;;;0.50;99.90;;;;;;5068562;28;20063;-45
2022/12/09 06:47:04;;;;;;;40.55;20.70;;;0.60;99.90;;;;;;5065178;28;20385;-45
2022/12/09 06:49:30;;;;;;;40.40;21.00;;;0.60;99.90;;;;;;5061279;28;20032;-45
2022/12/09 06:51:55;;;;;;;43.65;20.95;;;0.70;99.90;;;;;;5059474;28;20068;-45
2022/12/09 06:54:21;;;;;;;37.08;19.13;;;0.70;99.90;;;;;;5060145;28;21327;-43
2022/12/09 06:56:46;;;;;;;32.83;17.17;;;0.70;99.90;;;;;;5060188;28;20888;-44
2022/12/09 06:59:12;;;;;;;31.65;16.40;;;0.70;99.90;;;;;;5060649;28;20534;-44
2022/12/09 07:01:38;;;;;;;37.40;17.95;;;0.70;99.90;;;;;;5060350;28;20028;-44
2022/12/09 07:04:04;;;;;;;29.27;16.13;;;0.70;99.90;;;;;;5062404;28;20033;-44
2022/12/09 07:06:38;;;;;;;29.55;15.25;;;0.60;99.90;;;;;;5056058;28;20532;-44
2022/12/09 07:09:13;;;;;;;32.63;17.55;;;0.60;99.90;;;;;;5054184;28;20720;-44
2022/12/09 07:11:41;;;;;;;30.70;15.88;;;0.50;99.90;;;;;;5054830;28;20402;-45
2022/12/09 07:14:08;;;;;;;30.45;16.88;;;0.50;99.90;;;;;;5051968;28;20024;-43
2022/12/09 07:16:34;;;;;;;36.40;18.33;;;0.50;99.90;;;;;;5058877;28;20043;-44
2022/12/09 07:19:00;;;;;;;25.70;14.10;;;0.50;99.90;;;;;;5064006;28;20107;-45
2022/12/09 07:21:26;;;;;;;32.03;16.90;;;0.40;99.90;;;;;;5057341;28;20146;-46
2022/12/09 07:23:51;;;;;;;39.00;17.88;;;0.40;99.90;;;;;;5057364;28;20027;-45
2022/12/09 07:26:17;;;;;;;31.90;16.98;;;0.40;99.90;;;;;;5057903;28;20028;-47
2022/12/09 07:28:45;;;;;;;35.22;18.00;;;0.30;99.90;;;;;;5056551;28;20807;-47
2022/12/09 07:31:17;;;;;;;34.53;17.35;;;0.30;99.90;;;;;;5057122;28;20020;-45
2022/12/09 07:33:43;;;;;;;30.58;15.77;;;0.20;99.90;;;;;;5057735;28;20024;-45
2022/12/09 07:36:08;;;;;;;33.33;15.95;;;0.20;99.90;;;;;;5057986;28;20028;-44
2022/12/09 07:38:34;;;;;;;33.47;16.83;;;0.10;99.90;;;;;;5063423;28;20397;-45
2022/12/09 07:41:07;;;;;;;31.95;16.30;;;0.10;99.90;;;;;;5061611;28;20083;-45
2022/12/09 07:43:34;;;;;;;32.42;15.68;;;0.10;99.90;;;;;;5061569;28;20657;-45
2022/12/09 07:46:05;;;;;;;44.33;19.42;;;0.10;99.90;;;;;;5061045;28;20447;-45
2022/12/09 07:48:31;;;;;;;46.55;22.88;;;0.10;99.90;;;;;;5062323;28;20115;-44
2022/12/09 07:51:00;;;;;;;51.92;23.60;;;0.10;99.90;;;;;;5063869;28;20028;-45
2022/12/09 07:53:26;;;;;;;41.92;21.92;;;0.10;99.90;;;;;;5066670;28;20028;-44
2022/12/09 07:55:52;;;;;;;44.88;21.10;;;0.10;99.90;;;;;;5067968;28;20035;-46
2022/12/09 07:58:18;;;;;;;37.17;18.63;;;0.20;99.90;;;;;;5068122;28;20024;-44
2022/12/09 08:00:43;;;;;;;43.55;20.83;;;0.20;99.90;;;;;;5065465;28;20085;-45
2022/12/09 08:03:11;;;;;;;38.65;20.23;;;0.30;99.90;;;;;;5067482;28;20039;-44
2022/12/09 08:05:44;;;;;;;37.63;19.10;;;0.30;99.90;;;;;;5067033;28;20873;-45
2022/12/09 08:08:10;;;;;;;42.72;20.95;;;0.40;99.90;;;;;;5062573;28;20024;-46
2022/12/09 08:10:36;;;;;;;39.78;19.02;;;0.50;99.90;;;;;;5059479;28;20032;-45
2022/12/09 08:13:01;;;;;;;37.72;19.98;;;0.40;99.90;;;;;;5061547;28;20020;-47
2022/12/09 08:15:26;;;;;;;36.45;19.25;;;0.50;99.90;;;;;;5061952;28;20887;-45
2022/12/09 08:17:52;;;;;;;35.33;18.42;;;0.50;99.90;;;;;;5058846;28;20512;-44
2022/12/09 08:20:18;;;;;;;37.30;19.08;;;0.50;99.90;;;;;;5058389;28;20194;-46
2022/12/09 08:22:44;;;;;;;38.08;19.02;;;0.60;99.90;;;;;;5054565;28;20123;-46
2022/12/09 08:25:10;;;;;;;32.00;17.73;;;0.50;99.90;;;;;;5050648;28;20096;-45
2022/12/09 08:27:35;;;;;;;38.20;17.95;;;0.50;99.90;;;;;;5059919;28;20691;-46
2022/12/09 08:30:01;;;;;;;32.25;16.50;;;0.40;99.90;;;;;;5056951;28;20043;-45
2022/12/09 08:32:26;;;;;;;33.38;16.88;;;0.40;99.90;;;;;;5060350;28;20020;-45
2022/12/09 08:34:51;;;;;;;31.40;17.38;;;0.40;99.90;;;;;;5063417;28;20464;-45
2022/12/09 08:37:17;;;;;;;40.50;20.05;;;0.50;99.90;;;;;;5069749;28;20024;-46
2022/12/09 08:39:42;;;;;;;36.08;17.80;;;0.50;99.90;;;;;;5067352;28;20757;-46
2022/12/09 08:42:08;;;;;;;35.08;17.10;;;0.50;99.90;;;;;;5064931;28;20031;-45
2022/12/09 08:44:33;;;;;;;41.85;18.65;;;0.40;99.90;;;;;;5063504;28;20037;-45
2022/12/09 08:46:59;;;;;;;33.95;17.90;;;0.40;99.90;;;;;;5064277;28;20029;-45
2022/12/09 08:49:26;;;;;;;42.35;21.52;;;0.50;99.90;;;;;;5062923;28;20159;-46
2022/12/09 08:51:52;;;;;;;36.05;18.40;;;0.50;99.90;;;;;;5057140;28;20032;-46
2022/12/09 08:54:18;;;;;;;34.63;18.25;;;0.60;99.90;;;;;;5064052;28;20032;-46
2022/12/09 08:56:45;;;;;;;38.72;20.10;;;0.60;99.90;;;;;;5064695;28;20028;-46
2022/12/09 08:59:11;;;;;;;34.70;18.95;;;0.80;99.90;;;;;;5063431;28;20039;-46
2022/12/09 09:01:36;;;;;;;41.60;21.23;;;0.80;99.90;;;;;;5064631;28;20409;-46
2022/12/09 09:04:12;;;;;;;41.72;20.63;;;0.90;99.90;;;;;;5064040;28;20020;-46
2022/12/09 09:06:39;;;;;;;35.33;18.75;;;1.00;99.90;;;;;;5060107;28;20058;-46
2022/12/09 09:09:07;;;;;;;36.97;19.10;;;1.20;99.90;;;;;;5059090;28;20031;-47
2022/12/09 09:11:32;;;;;;;36.60;19.85;;;1.40;99.90;;;;;;5065666;28;20055;-46
2022/12/09 09:13:58;;;;;;;44.83;22.08;;;1.50;99.90;;;;;;5064948;28;20919;-46
2022/12/09 09:16:25;;;;;;;39.53;20.48;;;1.60;99.90;;;;;;5065409;28;20381;-46
2022/12/09 09:18:52;;;;;;;37.25;20.85;;;1.60;99.90;;;;;;5065438;28;20524;-46
2022/12/09 09:21:20;;;;;;;39.40;20.65;;;1.60;99.90;;;;;;5064599;28;20028;-46
2022/12/09 09:23:46;;;;;;;41.72;22.50;;;1.60;99.90;;;;;;5066417;28;20032;-47
2022/12/09 09:26:17;;;;;;;38.97;20.38;;;1.60;99.90;;;;;;5065344;28;20404;-48
2022/12/09 09:28:43;;;;;;;38.20;21.10;;;1.60;99.90;;;;;;5065923;28;20451;-46
2022/12/09 09:31:11;;;;;;;31.88;19.15;;;1.60;99.90;;;;;;5063747;28;21602;-47
2022/12/09 09:33:37;;;;;;;37.38;20.83;;;1.60;99.90;;;;;;5065613;28;20029;-46
2022/12/09 09:36:04;;;;;;;36.45;20.58;;;1.50;99.90;;;;;;5065299;28;20479;-46
2022/12/09 09:38:31;;;;;;;32.22;19.35;;;1.60;99.90;;;;;;5069265;28;21412;-46
2022/12/09 09:40:59;;;;;;;46.08;21.25;;;1.60;99.90;;;;;;5068438;28;20040;-45
2022/12/09 09:43:32;;;;;;;37.38;19.75;;;1.60;99.90;;;;;;5069171;28;20670;-46
2022/12/09 09:45:58;;;;;;;35.05;17.75;;;1.70;99.90;;;;;;5069060;28;20111;-46
2022/12/09 09:48:29;;;;;;;37.63;18.25;;;1.80;99.90;;;;;;5068723;28;20024;-46
2022/12/09 09:51:02;;;;;;;37.00;19.92;;;1.90;99.90;;;;;;5067950;28;20272;-46
2022/12/09 09:53:31;;;;;;;36.50;17.98;;;1.90;99.90;;;;;;5069064;28;20137;-46
2022/12/09 09:56:04;;;;;;;34.40;18.25;;;1.90;99.90;;;;;;5067538;28;20020;-47
2022/12/09 09:59:10;;;;;;;31.15;17.30;;;1.90;99.90;;;;;;5068333;28;20149;-46
2022/12/09 10:01:36;;;;;;;31.88;16.95;;;1.90;99.90;;;;;;5068617;28;20024;-49
2022/12/09 10:04:21;;;;;;;30.30;16.70;;;2.00;99.90;;;;;;5067900;28;20067;-47
2022/12/09 10:07:11;;;;;;;34.35;16.73;;;2.10;99.90;;;;;;5062724;28;20050;-46
2022/12/09 10:10:07;;;;;;;30.88;17.45;;;2.10;99.90;;;;;;5062777;28;20078;-46
2022/12/09 10:13:03;;;;;;;35.10;18.38;;;2.20;99.90;;;;;;5064258;28;20032;-46
2022/12/09 10:15:36;;;;;;;31.40;15.95;;;2.20;99.90;;;;;;5065862;28;20037;-49
2022/12/09 10:18:15;;;;;;;28.52;15.82;;;2.40;99.90;;;;;;5066707;28;20019;-46
2022/12/09 10:20:42;;;;;;;25.98;15.30;;;2.60;99.90;;;;;;5065846;28;20032;-47
2022/12/09 10:23:15;;;;;;;27.10;16.33;;;2.90;99.90;;;;;;5063632;28;20033;-47
2022/12/09 10:25:51;;;;;;;30.10;16.85;;;3.20;99.90;;;;;;5066495;28;20044;-48
2022/12/09 10:28:29;;;;;;;27.35;16.33;;;3.60;99.90;;;;;;5066437;28;20028;-49
2022/12/09 10:30:55;;;;;;;29.30;16.23;;;3.90;99.90;;;;;;5063120;28;20032;-46
2022/12/09 10:33:33;;;;;;;26.75;17.40;;;4.20;99.90;;;;;;5062896;28;20059;-46
2022/12/09 10:35:59;;;;;;;27.50;16.17;;;4.90;99.90;;;;;;5064979;28;21309;-47
2022/12/09 10:38:25;;;;;;;26.17;16.50;;;6.00;99.90;;;;;;5067812;28;20119;-47
2022/12/09 10:40:56;;;;;;;26.38;15.27;;;7.40;99.90;;;;;;5067803;28;20032;-45
2022/12/09 10:43:39;;;;;;;22.23;14.15;;;9.30;99.90;;;;;;5067922;28;20041;-45
2022/12/09 10:46:09;;;;;;;20.90;12.90;;;10.60;99.90;;;;;;5068831;28;20032;-45
2022/12/09 10:48:49;;;;;;;18.08;12.95;;;11.40;97.60;;;;;;5069143;28;21353;-45
2022/12/09 10:51:30;;;;;;;22.50;14.10;;;10.80;96.90;;;;;;5066833;28;20052;-46
2022/12/09 10:54:14;;;;;;;18.23;13.63;;;10.40;97.70;;;;;;5068763;28;20048;-45
2022/12/09 10:57:01;;;;;;;19.42;14.38;;;11.00;98.50;;;;;;5068186;28;20024;-46
2022/12/09 10:59:28;;;;;;;22.42;14.55;;;12.00;95.90;;;;;;5068666;28;20035;-46
2022/12/09 11:01:56;;;;;;;17.55;13.43;;;12.40;94.50;;;;;;5068077;28;20023;-46
2022/12/09 11:04:31;;;;;;;17.17;13.25;;;13.10;93.20;;;;;;5068704;28;20035;-46
2022/12/09 11:07:10;;;;;;;15.75;12.05;;;14.10;91.00;;;;;;5065640;28;20028;-49
2022/12/09 11:09:42;;;;;;;15.65;12.38;;;14.00;88.60;;;;;;5061394;28;20162;-46
2022/12/09 11:12:25;;;;;;;16.25;12.70;;;13.10;87.80;;;;;;5060589;28;20032;-45
2022/12/09 11:14:54;;;;;;;17.58;12.95;;;11.80;90.60;;;;;;5059718;28;20028;-46
2022/12/09 11:17:31;;;;;;;18.38;13.85;;;10.60;92.40;;;;;;5063441;28;20051;-45
2022/12/09 11:20:14;;;;;;;21.50;14.88;;;9.80;93.90;;;;;;5062269;28;20059;-45
2022/12/09 11:22:42;;;;;;;23.23;15.80;;;8.70;96.00;;;;;;5063557;28;20031;-46
2022/12/09 11:25:11;;;;;;;19.67;14.10;;;7.70;98.50;;;;;;5063260;28;20028;-45
2022/12/09 11:27:48;;;;;;;24.17;16.77;;;7.10;99.90;;;;;;5064203;28;20032;-47
2022/12/09 11:30:20;;;;;;;27.90;18.33;;;6.60;99.90;;;;;;5063369;28;20131;-45
2022/12/09 11:32:52;;;;;;;26.33;17.63;;;6.30;99.90;;;;;;5064694;28;20024;-46
2022/12/09 11:35:25;;;;;;;28.20;18.27;;;5.80;99.90;;;;;;5063878;28;20036;-45
2022/12/09 11:37:51;;;;;;;35.65;18.35;;;5.80;99.90;;;;;;5068170;28;20085;-47
2022/12/09 11:40:17;;;;;;;27.38;17.88;;;5.50;99.90;;;;;;5065972;28;20029;-45
2022/12/09 11:42:49;;;;;;;29.63;19.67;;;5.30;99.90;;;;;;5064241;28;20033;-45
2022/12/09 11:45:21;;;;;;;29.25;19.33;;;5.20;99.90;;;;;;5064666;28;20040;-45
2022/12/09 11:47:48;;;;;;;30.90;19.73;;;5.00;99.90;;;;;;5063913;28;20035;-48
2022/12/09 11:50:19;;;;;;;33.70;19.88;;;4.90;99.90;;;;;;5062975;28;20485;-46
2022/12/09 11:52:45;;;;;;;34.58;20.90;;;4.70;99.90;;;;;;5062736;28;20025;-47
2022/12/09 11:55:18;;;;;;;32.22;19.27;;;4.70;99.90;;;;;;5061686;28;20040;-49
2022/12/09 11:57:49;;;;;;;32.00;18.00;;;4.60;99.90;;;;;;5063790;28;20020;-46
2022/12/09 12:00:47;;;;;;;30.77;18.40;;;4.60;99.90;;;;;;5061174;28;20039;-46
2022/12/09 12:03:37;;;;;;;37.67;20.38;;;4.60;99.90;;;;;;5063202;28;20066;-46
2022/12/09 12:06:12;;;;;;;35.33;19.30;;;4.60;99.90;;;;;;5060366;28;20050;-46
2022/12/09 12:08:46;;;;;;;32.55;18.88;;;4.50;99.90;;;;;;5058755;28;20036;-47
2022/12/09 12:11:17;;;;;;;34.20;19.85;;;4.40;99.90;;;;;;5068483;28;20032;-50
2022/12/09 12:13:44;;;;;;;35.08;20.02;;;4.20;99.90;;;;;;5068208;28;20105;-45
2022/12/09 12:16:12;;;;;;;34.03;19.85;;;4.10;99.90;;;;;;5068669;28;20043;-46
2022/12/09 12:18:47;;;;;;;37.08;21.23;;;4.00;99.90;;;;;;5068762;28;20021;-45
2022/12/09 12:21:45;;;;;;;35.75;20.05;;;3.90;99.90;;;;;;5068324;28;20033;-49
2022/12/09 12:24:58;;;;;;;37.95;19.80;;;3.80;99.90;;;;;;5067975;28;20028;-46
2022/12/09 12:27:53;;;;;;;36.15;19.73;;;3.90;99.90;;;;;;5066309;28;20518;-49
2022/12/09 12:30:23;;;;;;;36.38;19.80;;;3.80;99.90;;;;;;4995279;28;20042;-46
2022/12/09 12:33:20;;;;;;;33.58;17.88;;;3.80;99.90;;;;;;5067529;28;20116;-46
2022/12/09 12:35:57;;;;;;;38.20;18.60;;;3.80;99.90;;;;;;5067170;28;20025;-47
2022/12/09 12:39:02;;;;;;;36.92;19.23;;;3.70;99.90;;;;;;5069367;28;20127;-46
2022/12/09 12:41:46;;;;;;;42.65;20.58;;;3.50;99.90;;;;;;5070908;28;20048;-46
2022/12/09 12:47:33;;;;;;;34.40;18.38;;;3.40;99.90;;;;;;5071205;28;20537;-46
2022/12/09 12:50:15;;;;;;;38.30;19.88;;;3.40;99.90;;;;;;5070706;28;20028;-45
2022/12/09 12:53:04;;;;;;;36.72;18.38;;;3.30;99.90;;;;;;5069384;28;20108;-45